createdAt,value
2024-02-29T00:02:27.517Z,7.15
2024-02-29T00:12:33.145Z,6.43
2024-02-29T00:15:00.992Z,6.17
2024-02-29T00:17:28.792Z,6.33
2024-02-29T00:19:56.607Z,6.95
2024-02-29T00:22:24.348Z,7.01
2024-02-29T00:24:52.291Z,7.02
2024-02-29T00:35:00.820Z,6.38
2024-02-29T00:37:29.981Z,6.23
2024-02-29T00:39:59.991Z,6.10
2024-02-29T00:42:28.100Z,6.59
2024-02-29T00:44:56.008Z,7.02
2024-02-29T00:47:23.824Z,7.11
2024-02-29T00:49:51.591Z,6.95
2024-02-29T00:52:19.421Z,6.60
2024-02-29T00:54:47.390Z,6.39
2024-02-29T00:57:15.289Z,6.21
2024-02-29T01:07:24.165Z,6.97
2024-02-29T01:09:52.106Z,6.81
2024-02-29T01:12:19.897Z,6.56
2024-02-29T01:14:47.697Z,6.42
2024-02-29T01:17:15.434Z,6.15
2024-02-29T01:19:43.293Z,5.78
2024-02-29T01:29:51.998Z,6.88
2024-02-29T01:32:26.374Z,6.70
2024-02-29T01:42:31.294Z,6.06
2024-02-29T01:44:59.026Z,6.52
2024-02-29T01:47:27.534Z,6.66
2024-02-29T01:49:58.748Z,6.64
2024-02-29T01:52:27.792Z,6.45
2024-02-29T02:02:35.020Z,5.79
2024-02-29T02:05:02.737Z,5.97
2024-02-29T02:07:30.604Z,6.59
2024-02-29T02:09:58.590Z,6.71
2024-02-29T02:20:08.092Z,5.95
2024-02-29T02:30:12.950Z,6.48
2024-02-29T02:32:41.792Z,6.49
2024-02-29T02:35:10.731Z,6.29
2024-02-29T02:37:38.603Z,6.14
2024-02-29T02:40:07.333Z,5.87
2024-02-29T02:42:35.437Z,5.65
2024-02-29T02:45:04.066Z,5.48
2024-02-29T02:47:31.933Z,6.05
2024-02-29T02:49:59.772Z,6.46
2024-02-29T03:00:11.679Z,5.81
2024-02-29T03:09:03.218Z,6.62
2024-02-29T03:11:31.112Z,6.51
2024-02-29T03:20:39.295Z,5.86
2024-02-29T03:23:07.160Z,5.71
2024-02-29T03:25:34.308Z,6.27
2024-02-29T03:28:01.727Z,6.62
2024-02-29T03:30:29.271Z,6.60
2024-02-29T03:32:56.483Z,6.36
2024-02-29T03:35:23.619Z,6.16
2024-02-29T03:37:50.791Z,5.99
2024-02-29T03:40:17.995Z,5.76
2024-02-29T03:42:45.244Z,5.58
2024-02-29T03:45:12.230Z,6.23
2024-02-29T03:47:39.493Z,6.48
2024-02-29T03:50:07.372Z,6.35
2024-02-29T03:52:34.593Z,6.05
2024-02-29T03:55:01.576Z,5.74
2024-02-29T03:57:28.687Z,5.67
2024-02-29T03:59:55.627Z,5.57
2024-02-29T04:02:23.720Z,6.29
2024-02-29T04:04:50.984Z,6.74
2024-02-29T04:07:18.381Z,6.62
2024-02-29T04:09:45.589Z,6.49
2024-02-29T04:12:12.620Z,6.18
2024-02-29T04:14:39.490Z,5.99
2024-02-29T04:17:06.513Z,5.85
2024-02-29T04:19:33.572Z,5.69
2024-02-29T04:22:00.892Z,6.30
2024-02-29T04:24:28.059Z,6.64
2024-02-29T04:26:55.001Z,6.51
2024-02-29T04:29:22.139Z,6.16
2024-02-29T04:31:49.358Z,5.86
2024-02-29T04:34:16.388Z,5.65
2024-02-29T04:36:43.469Z,5.88
2024-02-29T04:39:10.642Z,6.22
2024-02-29T04:41:37.581Z,6.30
2024-02-29T04:44:04.736Z,6.18
2024-02-29T04:46:31.984Z,5.93
2024-02-29T04:48:58.876Z,5.75
2024-02-29T04:51:25.782Z,5.87
2024-02-29T04:53:52.927Z,6.38
2024-02-29T04:56:20.479Z,6.46
2024-02-29T04:58:48.555Z,6.40
2024-02-29T05:01:17.681Z,6.26
2024-02-29T05:03:45.113Z,6.10
2024-02-29T05:06:16.664Z,5.99
2024-02-29T05:08:44.843Z,6.02
2024-02-29T05:11:11.917Z,6.67
2024-02-29T05:13:39.229Z,6.90
2024-02-29T05:16:06.957Z,6.80
2024-02-29T05:18:34.194Z,6.50
2024-02-29T05:21:01.424Z,6.24
2024-02-29T05:23:28.448Z,6.05
2024-02-29T05:25:55.389Z,6.07
2024-02-29T05:28:22.229Z,6.65
2024-02-29T05:30:49.197Z,6.86
2024-02-29T05:33:16.266Z,6.80
2024-02-29T05:35:43.381Z,6.56
2024-02-29T05:38:10.451Z,6.45
2024-02-29T05:40:37.577Z,6.31
2024-02-29T05:43:05.173Z,6.59
2024-02-29T05:45:32.522Z,6.93
2024-02-29T05:47:59.459Z,7.07
2024-02-29T05:50:29.206Z,6.98
2024-02-29T05:52:59.164Z,6.72
2024-02-29T05:55:26.127Z,6.52
2024-02-29T05:57:53.198Z,6.92
2024-02-29T06:00:22.286Z,7.23
2024-02-29T06:02:51.297Z,7.19
2024-02-29T06:05:22.786Z,6.94
2024-02-29T06:07:49.845Z,6.81
2024-02-29T06:10:17.938Z,6.67
2024-02-29T06:12:46.418Z,6.84
2024-02-29T06:15:13.542Z,7.50
2024-02-29T06:17:40.742Z,7.68
2024-02-29T06:20:12.662Z,7.51
2024-02-29T06:22:40.474Z,7.35
2024-02-29T06:25:11.652Z,7.26
2024-02-29T06:27:39.953Z,7.10
2024-02-29T06:30:09.035Z,7.55
2024-02-29T06:32:36.625Z,7.62
2024-02-29T06:35:04.768Z,7.43
2024-02-29T06:37:32.242Z,7.42
2024-02-29T06:40:00.043Z,7.35
2024-02-29T06:42:27.863Z,7.17
2024-02-29T06:44:55.116Z,7.42
2024-02-29T06:47:22.150Z,7.83
2024-02-29T06:49:49.425Z,7.92
2024-02-29T06:52:17.743Z,7.99
2024-02-29T06:54:46.086Z,7.81
2024-02-29T06:57:13.210Z,7.82
2024-02-29T06:59:40.660Z,7.61
2024-02-29T07:02:07.921Z,8.15
2024-02-29T07:04:35.376Z,8.70
2024-02-29T07:07:04.421Z,8.81
2024-02-29T07:09:31.837Z,8.64
2024-02-29T07:11:59.280Z,8.35
2024-02-29T07:14:26.443Z,8.41
2024-02-29T07:16:53.689Z,8.18
2024-02-29T07:19:21.717Z,8.01
2024-02-29T07:21:48.853Z,8.64
2024-02-29T07:24:15.866Z,8.93
2024-02-29T07:26:43.322Z,8.80
2024-02-29T07:29:10.660Z,8.80
2024-02-29T07:31:41.480Z,8.65
2024-02-29T07:34:11.427Z,8.41
2024-02-29T07:36:38.696Z,8.18
2024-02-29T07:39:08.074Z,8.63
2024-02-29T07:41:35.757Z,8.88
2024-02-29T07:44:03.488Z,8.99
2024-02-29T07:46:31.973Z,9.11
2024-02-29T07:48:59.677Z,8.98
2024-02-29T07:51:27.260Z,8.72
2024-02-29T07:53:54.684Z,8.73
2024-02-29T07:56:21.897Z,9.34
2024-02-29T07:58:49.256Z,10.05
2024-02-29T08:01:17.235Z,10.08
2024-02-29T08:03:44.836Z,9.94
2024-02-29T08:06:13.180Z,9.82
2024-02-29T08:08:40.826Z,9.64
2024-02-29T08:11:08.214Z,9.73
2024-02-29T08:13:35.739Z,9.59
2024-02-29T08:16:04.034Z,9.53
2024-02-29T08:18:34.263Z,9.47
2024-02-29T08:21:19.816Z,10.24
2024-02-29T08:23:47.069Z,10.44
2024-02-29T08:27:52.541Z,10.06
2024-02-29T08:30:20.923Z,10.17
2024-02-29T08:32:50.274Z,10.19
2024-02-29T08:35:19.412Z,10.18
2024-02-29T08:37:47.385Z,10.18
2024-02-29T08:40:15.530Z,10.02
2024-02-29T08:42:43.569Z,10.09
2024-02-29T08:45:11.585Z,10.72
2024-02-29T08:47:39.486Z,11.04
2024-02-29T08:50:08.250Z,10.96
2024-02-29T08:52:36.411Z,10.79
2024-02-29T08:55:04.840Z,10.59
2024-02-29T08:57:32.774Z,10.16
2024-02-29T09:00:01.035Z,10.30
2024-02-29T09:02:28.998Z,10.30
2024-02-29T09:04:56.870Z,10.36
2024-02-29T09:07:25.013Z,10.18
2024-02-29T09:09:53.160Z,9.94
2024-02-29T09:12:21.104Z,10.65
2024-02-29T09:14:49.089Z,11.12
2024-02-29T09:17:17.118Z,11.17
2024-02-29T09:19:44.992Z,11.45
2024-02-29T09:22:13.124Z,11.61
2024-02-29T09:24:41.268Z,11.72
2024-02-29T09:27:09.306Z,12.05
2024-02-29T09:29:37.186Z,12.42
2024-02-29T09:32:05.754Z,12.88
2024-02-29T09:34:38.468Z,13.27
2024-02-29T09:37:08.350Z,13.47
2024-02-29T09:39:36.449Z,13.94
2024-02-29T09:42:13.246Z,14.29
2024-02-29T09:44:44.170Z,14.54
2024-02-29T09:47:14.258Z,14.39
2024-02-29T09:49:43.647Z,14.86
2024-02-29T09:52:14.214Z,14.96
2024-02-29T09:54:42.601Z,15.38
2024-02-29T09:57:13.258Z,15.63
2024-02-29T09:59:45.052Z,15.59
2024-02-29T10:02:18.921Z,16.21
2024-02-29T10:04:47.987Z,16.61
2024-02-29T10:07:16.360Z,16.78
2024-02-29T10:09:45.689Z,16.42
2024-02-29T10:12:18.892Z,16.39
2024-02-29T10:14:47.627Z,16.60
2024-02-29T10:17:15.501Z,16.76
2024-02-29T10:19:43.475Z,16.97
2024-02-29T10:22:11.692Z,16.88
2024-02-29T10:24:39.739Z,16.79
2024-02-29T10:27:07.694Z,16.56
2024-02-29T10:29:35.553Z,16.53
2024-02-29T10:32:03.409Z,16.40
2024-02-29T10:34:31.433Z,16.52
2024-02-29T10:36:59.502Z,16.87
2024-02-29T10:39:28.011Z,16.99
2024-02-29T10:41:57.216Z,17.02
2024-02-29T10:44:25.806Z,16.87
2024-02-29T10:46:53.687Z,16.75
2024-02-29T10:49:30.562Z,16.96
2024-02-29T10:52:28.422Z,16.37
2024-02-29T10:55:09.728Z,16.85
2024-02-29T10:58:24.239Z,16.48
2024-02-29T11:00:52.831Z,16.64
2024-02-29T11:03:21.025Z,16.95
2024-02-29T11:05:49.100Z,17.14
2024-02-29T11:08:17.293Z,17.24
2024-02-29T11:10:52.729Z,17.23
2024-02-29T11:13:21.218Z,16.88
2024-02-29T11:15:54.199Z,16.97
2024-02-29T11:18:25.823Z,16.84
2024-02-29T11:21:06.913Z,16.89
2024-02-29T11:23:39.458Z,17.19
2024-02-29T11:26:10.375Z,17.40
2024-02-29T11:28:42.601Z,17.42
2024-02-29T11:31:18.493Z,17.56
2024-02-29T11:33:47.933Z,17.12
2024-02-29T11:36:16.126Z,16.92
2024-02-29T11:38:46.142Z,16.90
2024-02-29T11:41:21.103Z,16.97
2024-02-29T11:43:50.807Z,17.31
2024-02-29T11:46:19.215Z,17.40
2024-02-29T11:48:49.972Z,17.49
2024-02-29T11:51:37.289Z,17.49
2024-02-29T11:54:07.176Z,17.37
2024-02-29T11:56:35.110Z,17.30
2024-02-29T11:59:04.425Z,17.26
2024-02-29T12:01:32.397Z,17.22
2024-02-29T12:04:01.580Z,17.49
2024-02-29T12:06:29.779Z,17.60
2024-02-29T12:08:57.715Z,17.61
2024-02-29T12:11:25.628Z,17.53
2024-02-29T12:13:53.482Z,17.30
2024-02-29T12:16:21.512Z,17.04
2024-02-29T12:18:49.578Z,17.14
2024-02-29T12:21:17.573Z,17.11
2024-02-29T12:23:45.432Z,17.10
2024-02-29T12:26:17.848Z,16.99
2024-02-29T12:28:49.570Z,16.99
2024-02-29T12:31:17.759Z,17.03
2024-02-29T12:33:46.702Z,17.05
2024-02-29T12:36:20.426Z,17.17
2024-02-29T12:38:49.738Z,17.17
2024-02-29T12:41:17.742Z,17.32
2024-02-29T12:43:50.033Z,17.02
2024-02-29T12:46:18.394Z,16.68
2024-02-29T12:48:47.672Z,16.69
2024-02-29T12:51:16.026Z,17.03
2024-02-29T12:53:43.905Z,17.20
2024-02-29T12:56:11.872Z,17.26
2024-02-29T12:58:41.077Z,17.06
2024-02-29T13:01:09.616Z,17.11
2024-02-29T13:03:37.753Z,17.26
2024-02-29T13:06:06.097Z,17.37
2024-02-29T13:08:35.482Z,17.39
2024-02-29T13:11:03.369Z,17.36
2024-02-29T13:13:31.243Z,17.23
2024-02-29T13:15:59.245Z,17.24
2024-02-29T13:18:27.598Z,17.24
2024-02-29T13:20:55.551Z,17.29
2024-02-29T13:23:23.428Z,17.31
2024-02-29T13:33:33.345Z,16.77
2024-02-29T13:36:01.391Z,16.58
2024-02-29T13:38:29.270Z,16.64
2024-02-29T13:40:57.119Z,16.72
2024-02-29T13:43:25.134Z,16.74
2024-02-29T13:45:53.238Z,16.46
2024-02-29T13:48:21.740Z,16.35
2024-02-29T13:50:49.834Z,16.49
2024-02-29T13:53:17.782Z,16.64
2024-02-29T13:55:48.184Z,16.69
2024-02-29T13:58:16.802Z,16.63
2024-02-29T14:00:45.501Z,16.39
2024-02-29T14:03:13.855Z,16.32
2024-02-29T14:05:41.729Z,16.28
2024-02-29T14:08:09.594Z,16.30
2024-02-29T14:10:37.529Z,16.33
2024-02-29T14:13:06.693Z,16.30
2024-02-29T14:15:34.627Z,16.33
2024-02-29T14:18:02.935Z,16.31
2024-02-29T14:20:31.505Z,16.28
2024-02-29T14:22:59.498Z,16.11
2024-02-29T14:25:27.484Z,15.94
2024-02-29T14:27:55.396Z,15.75
2024-02-29T14:30:23.387Z,15.70
2024-02-29T14:32:51.255Z,15.69
2024-02-29T14:35:20.835Z,15.73
2024-02-29T14:37:48.706Z,15.68
2024-02-29T14:40:16.986Z,15.54
2024-02-29T14:42:45.086Z,15.42
2024-02-29T14:45:13.365Z,15.41
2024-02-29T14:47:41.550Z,15.31
2024-02-29T14:50:11.004Z,15.21
2024-02-29T14:52:41.158Z,15.14
2024-02-29T14:55:09.866Z,15.12
2024-02-29T14:57:37.992Z,15.00
2024-02-29T15:00:13.637Z,14.94
2024-02-29T15:02:42.684Z,14.82
2024-02-29T15:05:10.829Z,14.64
2024-02-29T15:07:38.975Z,14.54
2024-02-29T15:10:08.330Z,14.53
2024-02-29T15:12:36.246Z,14.38
2024-02-29T15:15:04.831Z,14.28
2024-02-29T15:17:34.368Z,14.15
2024-02-29T15:20:04.975Z,14.06
2024-02-29T15:22:32.936Z,13.95
2024-02-29T15:25:01.114Z,13.88
2024-02-29T15:27:34.094Z,13.79
2024-02-29T15:30:02.026Z,13.69
2024-02-29T15:32:30.164Z,13.52
2024-02-29T15:34:58.109Z,13.44
2024-02-29T15:37:26.053Z,13.31
2024-02-29T15:39:55.751Z,13.24
2024-02-29T15:42:23.762Z,13.04
2024-02-29T15:44:51.656Z,12.89
2024-02-29T15:47:20.306Z,12.79
2024-02-29T15:49:49.490Z,12.59
2024-02-29T15:52:18.342Z,12.38
2024-02-29T15:54:46.404Z,12.24
2024-02-29T15:57:14.490Z,12.14
2024-02-29T15:59:42.845Z,12.70
2024-02-29T16:02:11.052Z,13.25
2024-02-29T16:04:39.328Z,13.28
2024-02-29T16:07:07.142Z,13.09
2024-02-29T16:09:34.990Z,12.85
2024-02-29T16:12:03.240Z,12.63
2024-02-29T16:14:32.964Z,12.39
2024-02-29T16:17:03.583Z,12.23
2024-02-29T16:19:31.743Z,12.08
2024-02-29T16:21:59.776Z,11.88
2024-02-29T16:24:28.951Z,11.64
2024-02-29T16:26:56.834Z,11.46
2024-02-29T16:29:24.789Z,11.24
2024-02-29T16:31:53.105Z,11.74
2024-02-29T16:34:21.154Z,12.27
2024-02-29T16:36:49.753Z,12.25
2024-02-29T16:39:17.704Z,12.03
2024-02-29T16:41:45.863Z,11.85
2024-02-29T16:44:13.939Z,11.62
2024-02-29T16:46:42.647Z,11.46
2024-02-29T16:49:10.712Z,11.30
2024-02-29T16:51:38.973Z,11.14
2024-02-29T16:54:06.842Z,10.95
2024-02-29T16:56:34.705Z,10.75
2024-02-29T16:59:03.864Z,11.26
2024-02-29T17:01:31.857Z,11.78
2024-02-29T17:04:00.430Z,11.87
2024-02-29T17:06:29.442Z,11.75
2024-02-29T17:08:57.409Z,11.54
2024-02-29T17:11:26.226Z,11.31
2024-02-29T17:13:54.987Z,11.15
2024-02-29T17:16:22.849Z,10.98
2024-02-29T17:18:51.015Z,10.79
2024-02-29T17:21:20.129Z,10.54
2024-02-29T17:23:47.996Z,10.95
2024-02-29T17:26:17.922Z,11.55
2024-02-29T17:28:46.081Z,11.61
2024-02-29T17:31:14.208Z,11.42
2024-02-29T17:33:42.140Z,11.09
2024-02-29T17:36:10.291Z,10.58
2024-02-29T17:38:38.675Z,10.23
2024-02-29T17:41:06.753Z,9.98
2024-02-29T17:43:34.840Z,9.69
2024-02-29T17:46:03.016Z,9.38
2024-02-29T17:48:30.960Z,10.02
2024-02-29T17:50:59.038Z,10.57
2024-02-29T17:53:27.402Z,10.46
2024-02-29T17:55:55.282Z,10.10
2024-02-29T17:58:24.352Z,9.83
2024-02-29T18:00:52.488Z,9.58
2024-02-29T18:03:20.468Z,9.34
2024-02-29T18:05:48.477Z,9.11
2024-02-29T18:08:16.370Z,8.90
2024-02-29T18:10:44.484Z,9.34
2024-02-29T18:13:12.538Z,9.69
2024-02-29T18:15:40.616Z,9.62
2024-02-29T18:18:09.069Z,9.47
2024-02-29T18:20:37.122Z,9.26
2024-02-29T18:23:05.078Z,9.02
2024-02-29T18:25:33.070Z,8.84
2024-02-29T18:28:01.131Z,8.87
2024-02-29T18:30:29.814Z,9.55
2024-02-29T18:32:57.796Z,9.87
2024-02-29T18:35:25.796Z,9.67
2024-02-29T18:37:54.135Z,9.44
2024-02-29T18:40:22.203Z,9.14
2024-02-29T18:42:50.946Z,8.94
2024-02-29T18:45:19.887Z,8.71
2024-02-29T18:47:48.060Z,8.50
2024-02-29T18:50:16.034Z,8.91
2024-02-29T18:52:44.084Z,9.43
2024-02-29T18:55:13.339Z,9.49
2024-02-29T18:57:42.333Z,9.28
2024-02-29T19:00:11.359Z,8.99
2024-02-29T19:02:39.386Z,8.76
2024-02-29T19:05:08.030Z,8.56
2024-02-29T19:07:36.188Z,8.39
2024-02-29T19:10:04.572Z,8.16
2024-02-29T19:12:33.106Z,8.71
2024-02-29T19:15:01.024Z,9.28
2024-02-29T19:17:28.942Z,9.34
2024-02-29T19:19:56.977Z,9.21
2024-02-29T19:22:25.024Z,9.00
2024-02-29T19:24:53.139Z,8.76
2024-02-29T19:27:23.347Z,8.50
2024-02-29T19:29:53.605Z,8.29
2024-02-29T19:32:21.824Z,8.12
2024-02-29T19:34:49.798Z,7.95
2024-02-29T19:37:17.700Z,8.46
2024-02-29T19:39:46.383Z,8.99
2024-02-29T19:42:14.352Z,8.98
2024-02-29T19:44:42.384Z,8.77
2024-02-29T19:47:10.315Z,8.52
2024-02-29T19:49:39.278Z,8.21
2024-02-29T19:52:07.647Z,7.95
2024-02-29T19:54:35.645Z,7.74
2024-02-29T19:57:04.188Z,7.56
2024-02-29T19:59:32.149Z,7.35
2024-02-29T20:02:00.086Z,7.90
2024-02-29T20:04:29.451Z,8.54
2024-02-29T20:06:57.605Z,8.65
2024-02-29T20:09:25.567Z,8.56
2024-02-29T20:11:53.527Z,8.38
2024-02-29T20:14:21.496Z,8.14
2024-02-29T20:16:49.981Z,7.93
2024-02-29T20:19:17.938Z,7.72
2024-02-29T20:21:46.532Z,7.47
2024-02-29T20:24:14.605Z,7.85
2024-02-29T20:26:44.744Z,8.44
2024-02-29T20:29:12.608Z,8.53
2024-02-29T20:31:40.447Z,8.37
2024-02-29T20:34:08.465Z,8.14
2024-02-29T20:36:36.904Z,7.95
2024-02-29T20:39:04.768Z,7.78
2024-02-29T20:41:32.695Z,7.60
2024-02-29T20:44:02.773Z,7.36
2024-02-29T20:46:33.830Z,7.85
2024-02-29T20:49:02.053Z,8.49
2024-02-29T20:51:30.041Z,8.54
2024-02-29T20:53:58.633Z,8.40
2024-02-29T20:56:26.601Z,8.16
2024-02-29T20:58:54.467Z,7.87
2024-02-29T21:01:22.451Z,7.51
2024-02-29T21:03:51.197Z,7.31
2024-02-29T21:06:21.484Z,7.09
2024-02-29T21:08:49.287Z,7.61
2024-02-29T21:11:17.089Z,8.26
2024-02-29T21:13:46.153Z,8.37
2024-02-29T21:16:14.027Z,8.23
2024-02-29T21:18:42.010Z,7.98
2024-02-29T21:21:09.670Z,7.73
2024-02-29T21:23:39.843Z,7.53
2024-02-29T21:26:08.374Z,7.31
2024-02-29T21:28:36.137Z,7.12
2024-02-29T21:31:04.268Z,6.94
2024-02-29T21:33:32.597Z,7.47
2024-02-29T21:36:00.207Z,8.14
2024-02-29T21:38:27.904Z,8.21
2024-02-29T21:40:55.610Z,8.04
2024-02-29T21:43:23.392Z,7.76
2024-02-29T21:45:51.210Z,7.51
2024-02-29T21:48:18.837Z,7.30
2024-02-29T21:50:46.781Z,7.13
2024-02-29T21:53:14.527Z,6.96
2024-02-29T21:55:43.151Z,6.77
2024-02-29T21:58:10.940Z,7.32
2024-02-29T22:00:38.660Z,7.97
2024-02-29T22:03:06.476Z,8.01
2024-02-29T22:05:34.177Z,7.85
2024-02-29T22:08:01.893Z,7.64
2024-02-29T22:10:29.738Z,7.49
2024-02-29T22:12:57.511Z,7.29
2024-02-29T22:15:25.230Z,7.15
2024-02-29T22:17:54.245Z,6.99
2024-02-29T22:20:23.041Z,6.79
2024-02-29T22:22:50.715Z,7.25
2024-02-29T22:25:21.243Z,7.91
2024-02-29T22:27:49.024Z,8.01
2024-02-29T22:30:18.053Z,7.87
2024-02-29T22:32:45.720Z,7.70
2024-02-29T22:35:13.504Z,7.45
2024-02-29T22:37:41.351Z,7.23
2024-02-29T22:40:09.739Z,7.04
2024-02-29T22:42:37.471Z,6.86
2024-02-29T22:45:05.812Z,6.63
2024-02-29T22:47:33.591Z,7.10
2024-02-29T22:50:01.394Z,7.72
2024-02-29T22:52:29.138Z,7.80
2024-02-29T22:54:56.913Z,7.65
2024-02-29T22:57:24.578Z,7.40
2024-02-29T22:59:52.173Z,7.14
2024-02-29T23:02:19.841Z,6.92
2024-02-29T23:04:47.579Z,6.76
2024-02-29T23:07:15.294Z,6.64
2024-02-29T23:09:43.055Z,6.42
2024-02-29T23:12:10.690Z,6.97
2024-02-29T23:14:38.284Z,7.69
2024-02-29T23:17:05.856Z,7.80
2024-02-29T23:19:33.622Z,7.65
2024-02-29T23:22:01.348Z,7.39
2024-02-29T23:24:29.041Z,7.07
2024-02-29T23:26:56.749Z,6.79
2024-02-29T23:29:24.600Z,6.59
2024-02-29T23:31:52.279Z,6.39
2024-02-29T23:34:20.873Z,6.15
2024-02-29T23:36:49.004Z,6.69
2024-02-29T23:39:16.774Z,7.32
2024-02-29T23:41:44.433Z,7.37
2024-02-29T23:44:12.066Z,7.24
2024-02-29T23:46:43.781Z,7.02
2024-02-29T23:49:11.439Z,6.79
2024-02-29T23:51:39.129Z,6.57
2024-02-29T23:54:06.974Z,6.35
2024-02-29T23:56:34.695Z,6.19
2024-02-29T23:59:02.364Z,5.99
